createdAt,value
2023-04-22T00:01:24.717Z,99642.41
2023-04-22T00:03:53.460Z,99637.75
2023-04-22T00:06:23.147Z,99646.13
2023-04-22T00:08:51.237Z,99652.81
2023-04-22T00:11:19.632Z,99644.25
2023-04-22T00:13:47.706Z,99646.59
2023-04-22T00:16:16.554Z,99637.00
2023-04-22T00:18:44.919Z,99626.75
2023-04-22T00:21:13.305Z,99623.84
2023-04-22T00:23:45.438Z,99617.47
2023-04-22T00:26:13.820Z,99624.16
2023-04-22T00:28:42.337Z,99624.47
2023-04-22T00:31:10.856Z,99619.78
2023-04-22T00:33:39.009Z,99619.78
2023-04-22T00:36:07.597Z,99609.38
2023-04-22T00:38:35.749Z,99612.53
2023-04-22T00:41:05.773Z,99611.50
2023-04-22T00:43:34.365Z,99607.63
2023-04-22T00:46:04.342Z,99598.72
2023-04-22T00:48:33.436Z,99590.66
2023-04-22T00:51:01.566Z,99593.00
2023-04-22T00:53:30.174Z,99588.69
2023-04-22T00:55:58.303Z,99573.59
2023-04-22T00:58:29.620Z,99570.69
2023-04-22T01:00:57.945Z,99563.28
2023-04-22T01:03:28.513Z,99557.06
2023-04-22T01:05:57.324Z,99557.00
2023-04-22T01:08:29.228Z,99552.28
2023-04-22T01:10:57.398Z,99549.38
2023-04-22T01:13:25.656Z,99542.81
2023-04-22T01:15:55.896Z,99537.38
2023-04-22T01:18:24.047Z,99537.47
2023-04-22T01:20:52.293Z,99534.28
2023-04-22T01:23:22.576Z,99517.66
2023-04-22T01:25:51.206Z,99513.50
2023-04-22T01:28:19.592Z,99512.44
2023-04-22T01:30:50.114Z,99513.03
2023-04-22T01:33:18.586Z,99508.47
2023-04-22T01:35:46.953Z,99502.22
2023-04-22T01:38:15.384Z,99499.44
2023-04-22T01:40:45.195Z,99491.03
2023-04-22T01:43:13.469Z,99495.00
2023-04-22T01:45:41.709Z,99499.06
2023-04-22T01:48:11.313Z,99497.41
2023-04-22T01:50:39.562Z,99492.59
2023-04-22T01:53:08.801Z,99501.34
2023-04-22T01:55:37.423Z,99505.13
2023-04-22T01:58:06.946Z,99510.47
2023-04-22T02:00:35.030Z,99506.09
2023-04-22T02:03:03.286Z,99504.25
2023-04-22T02:05:31.822Z,99513.81
2023-04-22T02:08:00.439Z,99508.41
2023-04-22T02:10:28.587Z,99510.84
2023-04-22T02:12:56.613Z,99513.47
2023-04-22T02:15:26.094Z,99521.75
2023-04-22T02:17:55.573Z,99516.72
2023-04-22T02:20:23.824Z,99510.00
2023-04-22T02:22:52.289Z,99504.63
2023-04-22T02:25:21.548Z,99502.81
2023-04-22T02:27:51.562Z,99508.34
2023-04-22T02:30:20.071Z,99508.84
2023-04-22T02:32:49.991Z,99519.63
2023-04-22T02:35:18.108Z,99525.66
2023-04-22T02:37:46.388Z,99518.84
2023-04-22T02:40:15.044Z,99523.63
2023-04-22T02:42:43.078Z,99533.38
2023-04-22T02:45:11.701Z,99534.13
2023-04-22T02:47:39.806Z,99540.28
2023-04-22T02:50:10.774Z,99549.28
2023-04-22T02:52:39.356Z,99554.41
2023-04-22T02:55:07.998Z,99561.03
2023-04-22T02:57:36.532Z,99553.41
2023-04-22T03:00:05.548Z,99546.09
2023-04-22T03:02:34.155Z,99552.34
2023-04-22T03:05:13.643Z,99554.22
2023-04-22T03:07:41.989Z,99553.72
2023-04-22T03:10:10.911Z,99549.94
2023-04-22T03:12:39.060Z,99544.59
2023-04-22T03:15:07.717Z,99540.44
2023-04-22T03:17:37.060Z,99535.22
2023-04-22T03:20:10.465Z,99533.91
2023-04-22T03:22:40.189Z,99527.88
2023-04-22T03:25:11.722Z,99527.22
2023-04-22T03:27:41.042Z,99533.66
2023-04-22T03:30:09.513Z,99539.19
2023-04-22T03:32:38.326Z,99532.28
2023-04-22T03:35:35.934Z,99528.28
2023-04-22T03:38:05.855Z,99516.91
2023-04-22T03:40:36.613Z,99511.00
2023-04-22T03:43:12.802Z,99505.81
2023-04-22T03:45:41.871Z,99504.66
2023-04-22T03:48:17.212Z,99501.63
2023-04-22T03:50:49.604Z,99493.22
2023-04-22T03:53:20.240Z,99488.69
2023-04-22T03:55:48.825Z,99481.31
2023-04-22T03:58:19.431Z,99478.44
2023-04-22T04:00:48.665Z,99472.91
2023-04-22T04:03:18.690Z,99469.88
2023-04-22T04:05:50.208Z,99462.50
2023-04-22T04:08:20.264Z,99456.09
2023-04-22T04:10:48.359Z,99443.69
2023-04-22T04:13:17.338Z,99435.28
2023-04-22T04:15:58.691Z,99424.53
2023-04-22T04:18:29.798Z,99422.03
2023-04-22T04:20:58.226Z,99424.91
2023-04-22T04:23:30.516Z,99419.34
2023-04-22T04:26:01.316Z,99414.50
2023-04-22T04:28:32.384Z,99403.06
2023-04-22T04:31:02.872Z,99397.69
2023-04-22T04:33:32.566Z,99392.31
2023-04-22T04:36:01.099Z,99385.97
2023-04-22T04:38:34.328Z,99381.41
2023-04-22T04:41:04.124Z,99388.28
2023-04-22T04:43:33.596Z,99381.06
2023-04-22T04:46:16.757Z,99381.75
2023-04-22T04:48:46.830Z,99373.50
2023-04-22T04:51:18.263Z,99367.13
2023-04-22T04:53:58.152Z,99364.47
2023-04-22T04:56:31.047Z,99359.09
2023-04-22T04:58:59.768Z,99362.59
2023-04-22T05:01:29.323Z,99368.16
2023-04-22T05:04:04.158Z,99367.13
2023-04-22T05:06:33.858Z,99370.16
2023-04-22T05:09:08.254Z,99372.19
2023-04-22T05:11:37.622Z,99369.66
2023-04-22T05:14:13.200Z,99367.16
2023-04-22T05:16:43.570Z,99367.97
2023-04-22T05:19:12.421Z,99360.78
2023-04-22T05:21:40.611Z,99358.94
2023-04-22T05:24:10.158Z,99359.41
2023-04-22T05:26:38.663Z,99361.78
2023-04-22T05:29:13.348Z,99364.09
2023-04-22T05:31:41.757Z,99360.06
2023-04-22T05:34:12.062Z,99359.72
2023-04-22T05:36:40.871Z,99357.34
2023-04-22T05:39:10.793Z,99351.63
2023-04-22T05:41:39.893Z,99350.44
2023-04-22T05:44:11.400Z,99352.13
2023-04-22T05:46:39.711Z,99353.63
2023-04-22T05:49:07.990Z,99351.59
2023-04-22T05:52:01.851Z,99349.56
2023-04-22T05:54:39.914Z,99347.38
2023-04-22T05:57:08.323Z,99347.03
2023-04-22T05:59:36.495Z,99347.50
2023-04-22T06:02:05.076Z,99342.78
2023-04-22T06:04:37.157Z,99346.31
2023-04-22T06:07:06.352Z,99349.47
2023-04-22T06:09:34.489Z,99346.38
2023-04-22T06:12:04.110Z,99357.63
2023-04-22T06:14:32.257Z,99352.25
2023-04-22T06:17:00.464Z,99350.72
2023-04-22T06:19:28.550Z,99343.94
2023-04-22T06:21:56.738Z,99337.19
2023-04-22T06:24:25.471Z,99333.50
2023-04-22T06:26:56.363Z,99343.06
2023-04-22T06:29:25.952Z,99332.78
2023-04-22T06:31:55.032Z,99329.06
2023-04-22T06:34:24.273Z,99334.75
2023-04-22T06:36:54.030Z,99324.66
2023-04-22T06:39:22.873Z,99330.72
2023-04-22T06:42:20.532Z,99327.66
2023-04-22T06:45:12.922Z,99328.28
2023-04-22T06:47:56.982Z,99315.50
2023-04-22T06:50:31.505Z,99314.47
2023-04-22T06:53:00.336Z,99308.72
2023-04-22T06:55:28.461Z,99307.72
2023-04-22T06:57:56.838Z,99303.00
2023-04-22T07:00:26.675Z,99301.97
2023-04-22T07:02:54.985Z,99302.66
2023-04-22T07:05:23.949Z,99307.03
2023-04-22T07:07:52.415Z,99296.06
2023-04-22T07:10:22.689Z,99298.94
2023-04-22T07:13:09.388Z,99293.19
2023-04-22T07:15:39.337Z,99289.47
2023-04-22T07:18:07.460Z,99289.00
2023-04-22T07:20:35.609Z,99281.47
2023-04-22T07:23:03.624Z,99285.19
2023-04-22T07:25:31.875Z,99280.44
2023-04-22T07:28:00.147Z,99281.47
2023-04-22T07:30:28.299Z,99281.47
2023-04-22T07:32:57.898Z,99281.13
2023-04-22T07:35:26.114Z,99272.84
2023-04-22T07:37:54.150Z,99267.94
2023-04-22T07:40:22.502Z,99263.84
2023-04-22T07:42:51.246Z,99267.22
2023-04-22T07:45:19.611Z,99276.94
2023-04-22T07:47:47.757Z,99271.69
2023-04-22T07:50:17.282Z,99263.72
2023-04-22T07:52:45.309Z,99257.97
2023-04-22T07:55:13.444Z,99252.88
2023-04-22T07:57:41.573Z,99252.50
2023-04-22T08:00:10.647Z,99251.44
2023-04-22T08:02:41.568Z,99244.69
2023-04-22T08:05:09.832Z,99243.66
2023-04-22T08:07:39.368Z,99248.69
2023-04-22T08:10:08.257Z,99239.59
2023-04-22T08:12:36.555Z,99237.72
2023-04-22T08:15:05.022Z,99231.88
2023-04-22T08:17:33.199Z,99228.81
2023-04-22T08:20:01.605Z,99231.13
2023-04-22T08:22:29.834Z,99224.34
2023-04-22T08:24:59.631Z,99216.09
2023-04-22T08:27:27.790Z,99217.00
2023-04-22T08:29:55.954Z,99212.09
2023-04-22T08:32:26.592Z,99216.09
2023-04-22T08:35:03.862Z,99217.09
2023-04-22T08:37:33.657Z,99216.72
2023-04-22T08:40:04.985Z,99205.19
2023-04-22T08:42:33.556Z,99210.22
2023-04-22T08:45:03.373Z,99198.91
2023-04-22T08:47:32.945Z,99204.53
2023-04-22T08:50:03.436Z,99193.38
2023-04-22T08:52:31.694Z,99193.84
2023-04-22T08:55:00.190Z,99191.41
2023-04-22T08:57:30.311Z,99187.28
2023-04-22T08:59:59.378Z,99182.28
2023-04-22T09:02:28.705Z,99184.97
2023-04-22T09:04:57.150Z,99180.25
2023-04-22T09:07:26.329Z,99173.44
2023-04-22T09:09:55.896Z,99169.50
2023-04-22T09:12:24.234Z,99164.59
2023-04-22T09:14:54.724Z,99168.81
2023-04-22T09:17:32.218Z,99174.09
2023-04-22T09:20:01.058Z,99181.03
2023-04-22T09:22:30.285Z,99188.03
2023-04-22T09:24:58.956Z,99183.06
2023-04-22T09:27:27.534Z,99174.75
2023-04-22T09:29:57.266Z,99171.38
2023-04-22T09:32:26.140Z,99166.38
2023-04-22T09:34:55.129Z,99177.16
2023-04-22T09:37:28.927Z,99165.75
2023-04-22T09:40:05.271Z,99170.56
2023-04-22T09:42:33.799Z,99165.16
2023-04-22T09:45:03.392Z,99168.09
2023-04-22T09:47:36.780Z,99168.38
2023-04-22T09:50:05.684Z,99172.34
2023-04-22T09:52:34.155Z,99164.06
2023-04-22T09:55:02.660Z,99153.88
2023-04-22T09:57:30.916Z,99151.19
2023-04-22T10:00:00.327Z,99154.16
2023-04-22T10:02:31.360Z,99152.75
2023-04-22T10:05:00.476Z,99159.66
2023-04-22T10:07:31.870Z,99161.19
2023-04-22T10:10:00.250Z,99160.00
2023-04-22T10:12:35.272Z,99158.84
2023-04-22T10:15:04.475Z,99158.69
2023-04-22T10:17:35.550Z,99154.06
2023-04-22T10:20:05.605Z,99152.22
2023-04-22T10:22:34.537Z,99142.69
2023-04-22T10:25:03.212Z,99148.09
2023-04-22T10:27:31.930Z,99143.34
2023-04-22T10:30:00.616Z,99140.66
2023-04-22T10:32:29.013Z,99138.72
2023-04-22T10:35:12.707Z,99133.19
2023-04-22T10:37:46.098Z,99133.88
2023-04-22T10:40:17.245Z,99131.56
2023-04-22T10:42:48.370Z,99129.63
2023-04-22T10:45:16.969Z,99125.66
2023-04-22T10:47:45.704Z,99121.50
2023-04-22T10:50:18.181Z,99128.47
2023-04-22T10:52:48.211Z,99134.81
2023-04-22T10:55:16.426Z,99131.50
2023-04-22T10:57:45.221Z,99129.00
2023-04-22T11:00:23.470Z,99126.53
2023-04-22T11:02:56.090Z,99128.31
2023-04-22T11:05:27.535Z,99139.88
2023-04-22T11:07:56.970Z,99129.56
2023-04-22T11:10:43.020Z,99127.03
2023-04-22T11:13:14.028Z,99114.38
2023-04-22T11:15:43.293Z,99121.63
2023-04-22T11:18:12.437Z,99114.91
2023-04-22T11:20:42.178Z,99115.31
2023-04-22T11:23:10.570Z,99108.69
2023-04-22T11:25:38.584Z,99105.59
2023-04-22T11:28:06.734Z,99105.53
2023-04-22T11:30:35.012Z,99102.44
2023-04-22T11:33:03.122Z,99112.06
2023-04-22T11:35:32.208Z,99104.84
2023-04-22T11:38:02.802Z,99109.44
2023-04-22T11:40:33.805Z,99116.97
2023-04-22T11:43:03.886Z,99110.31
2023-04-22T11:45:33.149Z,99111.16
2023-04-22T11:48:01.860Z,99113.75
2023-04-22T11:50:31.200Z,99106.06
2023-04-22T11:53:01.214Z,99105.84
2023-04-22T11:55:31.811Z,99105.69
2023-04-22T11:58:01.301Z,99099.03
2023-04-22T12:00:31.632Z,99097.38
2023-04-22T12:03:01.106Z,99097.41
2023-04-22T12:05:39.754Z,99094.53
2023-04-22T12:08:09.129Z,99096.19
2023-04-22T12:10:43.022Z,99099.31
2023-04-22T12:13:11.570Z,99093.88
2023-04-22T12:15:40.620Z,99086.63
2023-04-22T12:18:09.056Z,99094.53
2023-04-22T12:20:37.635Z,99082.88
2023-04-22T12:23:05.764Z,99093.28
2023-04-22T12:25:34.852Z,99086.44
2023-04-22T12:28:04.496Z,99099.94
2023-04-22T12:30:33.187Z,99089.34
2023-04-22T12:33:01.245Z,99087.47
2023-04-22T12:35:29.252Z,99094.94
2023-04-22T12:37:57.317Z,99089.09
2023-04-22T12:40:25.487Z,99089.50
2023-04-22T12:42:53.542Z,99090.13
2023-04-22T12:45:24.890Z,99091.16
2023-04-22T12:47:55.512Z,99091.56
2023-04-22T12:50:23.664Z,99089.72
2023-04-22T12:52:51.892Z,99087.56
2023-04-22T12:55:21.076Z,99080.88
2023-04-22T12:57:49.621Z,99086.09
2023-04-22T13:00:17.772Z,99083.19
2023-04-22T13:02:48.338Z,99094.19
2023-04-22T13:05:17.271Z,99098.94
2023-04-22T13:07:46.913Z,99105.59
2023-04-22T13:10:22.998Z,99107.84
2023-04-22T13:12:51.229Z,99123.44
2023-04-22T13:15:19.459Z,99115.91
2023-04-22T13:17:51.022Z,99121.34
2023-04-22T13:20:19.858Z,99130.88
2023-04-22T13:22:48.602Z,99132.63
2023-04-22T13:25:17.705Z,99138.84
2023-04-22T13:27:46.062Z,99147.84
2023-04-22T13:30:14.758Z,99139.53
2023-04-22T13:32:42.946Z,99141.88
2023-04-22T13:35:12.823Z,99144.72
2023-04-22T13:37:40.818Z,99158.06
2023-04-22T13:40:09.725Z,99166.63
2023-04-22T13:42:37.893Z,99156.25
2023-04-22T13:45:07.165Z,99168.75
2023-04-22T13:47:35.546Z,99172.94
2023-04-22T13:50:05.407Z,99163.78
2023-04-22T13:52:35.557Z,99168.59
2023-04-22T13:55:03.917Z,99171.88
2023-04-22T13:57:32.061Z,99182.06
2023-04-22T14:00:01.967Z,99178.97
2023-04-22T14:02:40.133Z,99167.06
2023-04-22T14:05:10.630Z,99172.09
2023-04-22T14:07:40.215Z,99153.72
2023-04-22T14:10:12.130Z,99140.78
2023-04-22T14:12:40.752Z,99114.09
2023-04-22T14:15:11.265Z,99100.34
2023-04-22T14:17:39.952Z,99108.19
2023-04-22T14:20:10.865Z,99089.25
2023-04-22T14:22:40.873Z,99092.84
2023-04-22T14:25:09.328Z,99046.09
2023-04-22T14:27:37.737Z,99044.81
2023-04-22T14:30:06.761Z,99028.94
2023-04-22T14:32:34.984Z,99033.47
2023-04-22T14:35:03.365Z,99063.38
2023-04-22T14:37:32.246Z,99065.41
2023-04-22T14:40:01.670Z,99059.34
2023-04-22T14:42:29.886Z,99085.69
2023-04-22T14:44:58.516Z,99055.34
2023-04-22T14:47:27.038Z,99084.81
2023-04-22T14:49:55.378Z,99063.44
2023-04-22T14:52:23.474Z,99057.44
2023-04-22T14:54:52.158Z,99077.78
2023-04-22T14:57:21.765Z,99066.63
2023-04-22T14:59:50.041Z,99066.78
2023-04-22T15:02:18.342Z,99062.56
2023-04-22T15:04:46.964Z,99072.97
2023-04-22T15:07:15.091Z,99067.41
2023-04-22T15:09:43.787Z,99052.47
2023-04-22T15:12:12.084Z,99046.59
2023-04-22T15:14:41.697Z,99050.66
2023-04-22T15:17:10.071Z,99038.00
2023-04-22T15:19:38.502Z,99027.06
2023-04-22T15:22:06.730Z,99030.81
2023-04-22T15:24:35.007Z,99049.44
2023-04-22T15:27:03.649Z,99050.16
2023-04-22T15:29:32.330Z,99042.47
2023-04-22T15:32:02.380Z,99040.84
2023-04-22T15:34:30.733Z,99040.06
2023-04-22T15:36:59.054Z,99037.59
2023-04-22T15:39:27.329Z,99014.53
2023-04-22T15:41:55.860Z,99032.97
2023-04-22T15:44:24.252Z,99038.69
2023-04-22T15:46:52.736Z,99046.81
2023-04-22T15:49:22.420Z,99040.56
2023-04-22T15:51:51.511Z,99036.09
2023-04-22T15:54:19.736Z,99033.22
2023-04-22T15:56:48.071Z,99025.75
2023-04-22T15:59:16.238Z,99036.53
2023-04-22T16:01:46.242Z,99018.53
2023-04-22T16:04:14.917Z,99005.22
2023-04-22T16:06:44.682Z,98994.72
2023-04-22T16:09:12.776Z,99008.38
2023-04-22T16:11:41.076Z,99028.59
2023-04-22T16:14:10.949Z,99043.38
2023-04-22T16:16:40.613Z,99044.28
2023-04-22T16:19:09.270Z,99044.72
2023-04-22T16:21:37.502Z,99028.13
2023-04-22T16:24:07.686Z,99038.69
2023-04-22T16:26:36.104Z,99053.25
2023-04-22T16:29:04.384Z,99045.19
2023-04-22T16:31:32.753Z,99039.66
2023-04-22T16:34:00.988Z,99026.47
2023-04-22T16:36:29.147Z,99036.53
2023-04-22T16:38:57.470Z,99031.47
2023-04-22T16:41:27.016Z,99031.47
2023-04-22T16:43:55.429Z,99022.59
2023-04-22T16:46:23.559Z,99009.13
2023-04-22T16:48:51.632Z,99004.47
2023-04-22T16:51:19.903Z,99013.75
2023-04-22T16:53:47.934Z,98996.03
2023-04-22T16:56:16.118Z,98996.69
2023-04-22T16:58:45.718Z,98999.34
2023-04-22T17:01:14.101Z,99011.28
2023-04-22T17:03:42.489Z,99008.59
2023-04-22T17:06:11.121Z,99015.81
2023-04-22T17:08:39.424Z,99014.22
2023-04-22T17:11:07.815Z,99010.47
2023-04-22T17:13:36.342Z,99023.47
2023-04-22T17:16:08.069Z,99010.16
2023-04-22T17:18:36.141Z,99016.44
2023-04-22T17:21:04.359Z,99018.91
2023-04-22T17:23:32.528Z,99006.03
2023-04-22T17:26:00.891Z,99002.91
2023-04-22T17:28:29.161Z,99009.34
2023-04-22T17:30:57.250Z,99008.50
2023-04-22T17:33:26.989Z,99011.81
2023-04-22T17:35:55.008Z,99019.06
2023-04-22T17:38:23.182Z,99016.34
2023-04-22T17:40:51.394Z,99028.41
2023-04-22T17:43:19.620Z,99019.03
2023-04-22T17:45:48.464Z,99016.53
2023-04-22T17:48:16.568Z,99026.72
2023-04-22T17:50:46.004Z,99023.41
2023-04-22T17:53:14.350Z,99024.84
2023-04-22T17:55:42.909Z,99026.09
2023-04-22T17:58:11.039Z,99036.94
2023-04-22T18:00:39.673Z,99039.63
2023-04-22T18:03:08.320Z,99033.78
2023-04-22T18:05:43.041Z,99032.13
2023-04-22T18:08:12.649Z,99029.41
2023-04-22T18:10:41.160Z,99025.91
2023-04-22T18:13:09.567Z,99032.34
2023-04-22T18:15:37.834Z,99036.25
2023-04-22T18:18:06.344Z,99030.88
2023-04-22T18:20:34.518Z,99048.53
2023-04-22T18:23:03.206Z,99049.97
2023-04-22T18:25:33.314Z,99028.97
2023-04-22T18:28:02.230Z,99037.84
2023-04-22T18:30:30.951Z,99042.22
2023-04-22T18:33:01.196Z,99042.19
2023-04-22T18:35:29.566Z,99032.75
2023-04-22T18:37:58.080Z,99035.63
2023-04-22T18:40:26.333Z,99040.09
2023-04-22T18:42:56.124Z,99046.25
2023-04-22T18:45:25.365Z,99041.00
2023-04-22T18:47:53.505Z,99044.50
2023-04-22T18:50:22.450Z,99045.22
2023-04-22T18:52:50.673Z,99031.84
2023-04-22T18:55:18.853Z,99023.41
2023-04-22T18:57:47.169Z,99008.47
2023-04-22T19:00:17.281Z,99025.56
2023-04-22T19:02:46.175Z,99015.56
2023-04-22T19:05:14.952Z,99020.34
2023-04-22T19:07:45.093Z,99026.91
2023-04-22T19:10:13.784Z,99023.66
2023-04-22T19:12:41.878Z,99033.53
2023-04-22T19:15:10.459Z,99028.34
2023-04-22T19:17:40.688Z,99031.81
2023-04-22T19:20:09.376Z,99043.59
2023-04-22T19:22:37.497Z,99037.41
2023-04-22T19:25:06.573Z,99042.03
2023-04-22T19:27:34.810Z,99045.13
2023-04-22T19:30:03.014Z,99039.06
2023-04-22T19:32:31.414Z,99042.78
2023-04-22T19:35:03.911Z,99052.91
2023-04-22T19:37:32.469Z,99043.53
2023-04-22T19:40:00.565Z,99054.50
2023-04-22T19:42:29.392Z,99053.84
2023-04-22T19:44:59.113Z,99055.06
2023-04-22T19:47:27.806Z,99056.47
2023-04-22T19:49:56.666Z,99057.41
2023-04-22T19:52:26.462Z,99059.31
2023-04-22T19:54:58.815Z,99056.91
2023-04-22T19:57:27.734Z,99052.75
2023-04-22T19:59:56.558Z,99058.88
2023-04-22T20:02:24.992Z,99052.38
2023-04-22T20:04:53.565Z,99046.00
2023-04-22T20:07:22.323Z,99050.69
2023-04-22T20:09:52.653Z,99056.09
2023-04-22T20:12:21.501Z,99050.69
2023-04-22T20:14:49.581Z,99050.06
2023-04-22T20:17:17.719Z,99055.44
2023-04-22T20:19:46.426Z,99059.53
2023-04-22T20:22:15.148Z,99053.31
2023-04-22T20:24:43.801Z,99062.03
2023-04-22T20:27:14.162Z,99058.50
2023-04-22T20:29:43.922Z,99059.16
2023-04-22T20:32:12.262Z,99064.91
2023-04-22T20:34:40.817Z,99061.19
2023-04-22T20:37:12.411Z,99067.78
2023-04-22T20:39:42.368Z,99059.59
2023-04-22T20:42:11.964Z,99049.84
2023-04-22T20:44:42.025Z,99047.72
2023-04-22T20:47:11.027Z,99051.28
2023-04-22T20:49:40.683Z,99051.28
2023-04-22T20:52:09.485Z,99047.91
2023-04-22T20:54:38.025Z,99052.28
2023-04-22T20:57:07.395Z,99049.41
2023-04-22T20:59:36.166Z,99057.66
2023-04-22T21:02:06.891Z,99052.91
2023-04-22T21:04:35.808Z,99045.91
2023-04-22T21:07:06.675Z,99048.94
2023-04-22T21:09:34.963Z,99046.41
2023-04-22T21:12:03.795Z,99046.34
2023-04-22T21:14:32.215Z,99044.28
2023-04-22T21:17:02.485Z,99053.00
2023-04-22T21:19:33.883Z,99047.53
2023-04-22T21:22:03.783Z,99051.72
2023-04-22T21:24:32.366Z,99047.53
2023-04-22T21:27:01.430Z,99051.88
2023-04-22T21:29:29.966Z,99050.03
2023-04-22T21:32:07.871Z,99048.72
2023-04-22T21:34:39.761Z,99038.53
2023-04-22T21:37:09.025Z,99044.56
2023-04-22T21:39:37.518Z,99043.34
2023-04-22T21:42:08.391Z,99039.66
2023-04-22T21:44:37.684Z,99053.09
2023-04-22T21:47:06.742Z,99045.84
2023-04-22T21:49:35.021Z,99045.84
2023-04-22T21:52:04.651Z,99050.78
2023-04-22T21:54:32.850Z,99047.06
2023-04-22T21:57:01.564Z,99045.41
2023-04-22T21:59:29.752Z,99047.91
2023-04-22T22:01:58.277Z,99049.56
2023-04-22T22:04:26.780Z,99048.34
2023-04-22T22:06:54.828Z,99053.09
2023-04-22T22:09:24.376Z,99057.44
2023-04-22T22:11:52.429Z,99055.41
2023-04-22T22:14:20.843Z,99053.75
2023-04-22T22:16:50.002Z,99050.78
2023-04-22T22:19:18.142Z,99050.78
2023-04-22T22:21:46.155Z,99043.72
2023-04-22T22:24:14.279Z,99051.78
2023-04-22T22:26:44.375Z,99046.41
2023-04-22T22:29:15.656Z,99044.91
2023-04-22T22:31:44.335Z,99045.09
2023-04-22T22:34:12.593Z,99035.38
2023-04-22T22:36:41.359Z,99038.06
2023-04-22T22:39:14.393Z,99048.16
2023-04-22T22:41:44.350Z,99038.41
2023-04-22T22:44:12.675Z,99045.66
2023-04-22T22:46:41.547Z,99039.25
2023-04-22T22:49:10.121Z,99042.78
2023-04-22T22:51:38.645Z,99035.72
2023-04-22T22:54:07.015Z,99036.56
2023-04-22T22:56:35.333Z,99044.81
2023-04-22T22:59:04.722Z,99040.66
2023-04-22T23:01:33.076Z,99037.78
2023-04-22T23:04:01.684Z,99039.81
2023-04-22T23:06:29.962Z,99037.78
2023-04-22T23:08:58.291Z,99032.41
2023-04-22T23:11:26.439Z,99039.81
2023-04-22T23:13:54.782Z,99034.78
2023-04-22T23:16:24.788Z,99040.81
2023-04-22T23:18:53.292Z,99033.13
2023-04-22T23:21:22.482Z,99029.41
2023-04-22T23:23:51.196Z,99031.47
2023-04-22T23:26:19.416Z,99024.03
2023-04-22T23:28:47.929Z,99029.78
2023-04-22T23:31:19.750Z,99029.03
2023-04-22T23:33:50.887Z,99027.66
2023-04-22T23:36:19.461Z,99025.50
2023-04-22T23:38:47.549Z,99021.97
2023-04-22T23:41:15.721Z,99022.16
2023-04-22T23:43:44.157Z,99023.34
2023-04-22T23:46:13.138Z,99022.91
2023-04-22T23:48:41.330Z,99025.91
2023-04-22T23:51:14.166Z,99016.47
2023-04-22T23:53:42.374Z,99013.09
2023-04-22T23:56:11.112Z,99006.59
2023-04-22T23:58:39.742Z,99005.19
